ジャカルタ の空港の天気 - METARとTAF

スカルノハッタ国際空港 ( WIII / CGK ) - インドネシア バンテン州、Cengkareng ( ジャカルタ近郊)
飛行場実況気象(Metar)
観測時間08/14 11:30 WIB (08/14 04:30 UTC)
風向・風速南東 3m/s
視程7000m
天気現象
全天の8割程度の雲 雲底高度 670m
気温29℃
湿度70%
気圧1010hPa
METARWIII 140430Z 13006KT 7000 BKN022 29/23 Q1010 NOSIG
過去の天気等 Google飛行場航空写真 Wunderground天気予報

過去48時間のMETAR

飛行場予報(TAF)
発表時間: 8/14 06:00 WIB (8/13 23:00 UTC)
予報対象時間: 14日7時 WIB ~ 15日13時 WIB
風向・風速南東 3m/s
視程5000m
天気現象煙霧
少しの雲 雲底高度 610m
14日11時 WIB ~ 14日14時 WIB に一時的に
風向・風速東北東 5m/s
視程5000m
天気現象弱い雷雨
少しの積乱雲 雲底高度 550m
TAF WIII 132300Z 1400/1506 14005KT 5000 HZ FEW020
TEMPO 1404/1407 07010KT 5000 -TSRA FEW018CB